Time;durP1;ratioP1;P1;durP2;ratioP2;P2;SDS_P1;SDS_P2;PMS_P1;PMS_P2;Temp;Humidity;BMP_temperature;BMP_pressure;BME280_temperature;BME280_humidity;BME280_pressure;Samples;Min_cycle;Max_cycle;Signal;HPM_P1;HPM_P2
2022/01/03 00:00:42;;;;;;;9.70;5.18;;;;;;;;;;5016472;28;20505;-84
2022/01/03 00:03:10;;;;;;;12.75;5.53;;;;;;;;;;5016815;28;20033;-85
2022/01/03 00:05:36;;;;;;;13.20;5.50;;;;;;;;;;5016412;28;20048;-85
2022/01/03 00:08:04;;;;;;;13.07;5.55;;;;;;;;;;5016472;28;20361;-85
2022/01/03 00:10:30;;;;;;;11.70;5.13;;;;;;;;;;5016294;28;20039;-85
2022/01/03 00:12:56;;;;;;;11.05;4.55;;;;;;;;;;5016473;28;20060;-85
2022/01/03 00:15:24;;;;;;;13.20;5.38;;;;;;;;;;5016401;28;20092;-85
2022/01/03 00:17:51;;;;;;;11.13;4.97;;;;;;;;;;5034196;28;20025;-85
2022/01/03 00:20:17;;;;;;;14.10;5.28;;;;;;;;;;5016096;28;20515;-85
2022/01/03 00:22:44;;;;;;;9.32;4.88;;;;;;;;;;5016293;28;20040;-85
2022/01/03 00:25:21;;;;;;;9.38;3.85;;;;;;;;;;5016254;28;20069;-85
2022/01/03 00:28:02;;;;;;;11.57;4.97;;;;;;;;;;5016261;28;20065;-85
2022/01/03 00:30:30;;;;;;;10.80;4.13;;;;;;;;;;5016208;28;20037;-86
2022/01/03 00:32:58;;;;;;;11.98;4.15;;;;;;;;;;5033617;28;20049;-85
2022/01/03 00:35:24;;;;;;;7.72;3.83;;;;;;;;;;5016177;28;20044;-85
2022/01/03 00:37:51;;;;;;;8.02;4.00;;;;;;;;;;5015850;28;20030;-84
2022/01/03 00:40:19;;;;;;;8.25;4.05;;;;;;;;;;5035396;28;20033;-85
2022/01/03 00:42:45;;;;;;;8.82;4.03;;;;;;;;;;5038081;28;20514;-85
2022/01/03 00:45:12;;;;;;;11.45;4.03;;;;;;;;;;5020131;28;20095;-85
2022/01/03 00:47:38;;;;;;;8.20;4.05;;;;;;;;;;5037844;28;20026;-84
2022/01/03 00:50:08;;;;;;;11.77;3.75;;;;;;;;;;5019886;28;20090;-85
2022/01/03 00:52:34;;;;;;;9.88;4.18;;;;;;;;;;5020017;28;20034;-85
2022/01/03 00:55:01;;;;;;;8.77;3.72;;;;;;;;;;5019962;28;20037;-85
2022/01/03 00:57:48;;;;;;;11.43;4.05;;;;;;;;;;5037657;28;20041;-85
2022/01/03 01:00:14;;;;;;;9.13;4.25;;;;;;;;;;5010003;28;20034;-85
2022/01/03 01:02:47;;;;;;;11.10;4.35;;;;;;;;;;5019719;28;20036;-85
2022/01/03 01:05:13;;;;;;;11.45;4.15;;;;;;;;;;5019799;28;20041;-85
2022/01/03 01:07:40;;;;;;;10.15;3.95;;;;;;;;;;5019566;28;20380;-85
2022/01/03 01:10:08;;;;;;;7.80;3.88;;;;;;;;;;5019606;28;20029;-85
2022/01/03 01:12:37;;;;;;;11.35;4.10;;;;;;;;;;5037418;28;20029;-85
2022/01/03 01:15:03;;;;;;;9.35;4.82;;;;;;;;;;5019537;28;20488;-85
2022/01/03 01:17:30;;;;;;;7.57;3.80;;;;;;;;;;5019511;28;20030;-85
2022/01/03 01:19:57;;;;;;;8.35;4.15;;;;;;;;;;5019491;28;20083;-85
2022/01/03 01:22:23;;;;;;;11.18;5.57;;;;;;;;;;5019477;28;20032;-85
2022/01/03 01:25:11;;;;;;;13.45;5.47;;;;;;;;;;5019320;28;20029;-85
2022/01/03 01:27:46;;;;;;;12.00;5.30;;;;;;;;;;5036866;28;20064;-84
2022/01/03 01:30:12;;;;;;;19.42;5.50;;;;;;;;;;5019477;28;20112;-85
2022/01/03 01:32:43;;;;;;;12.85;5.05;;;;;;;;;;5037146;28;20072;-85
2022/01/03 01:35:09;;;;;;;13.73;4.60;;;;;;;;;;5036861;28;20113;-85
2022/01/03 01:37:37;;;;;;;11.40;4.80;;;;;;;;;;5019169;28;20058;-85
2022/01/03 01:40:04;;;;;;;14.93;5.53;;;;;;;;;;5019008;28;20072;-85
2022/01/03 01:42:31;;;;;;;11.13;5.32;;;;;;;;;;5019092;28;20037;-85
2022/01/03 01:45:00;;;;;;;14.02;5.32;;;;;;;;;;5036900;28;20468;-84
2022/01/03 01:47:27;;;;;;;15.18;5.80;;;;;;;;;;5019026;28;20033;-85
2022/01/03 01:49:54;;;;;;;15.70;6.25;;;;;;;;;;5018867;28;20488;-85
2022/01/03 01:52:22;;;;;;;12.85;5.72;;;;;;;;;;5035790;28;20472;-85
2022/01/03 01:55:07;;;;;;;11.57;5.22;;;;;;;;;;5018741;28;20030;-85
2022/01/03 01:57:52;;;;;;;13.00;5.28;;;;;;;;;;5036854;28;20029;-85
2022/01/03 02:00:18;;;;;;;14.52;6.72;;;;;;;;;;5018748;28;20361;-85
2022/01/03 02:02:46;;;;;;;15.82;7.75;;;;;;;;;;5018687;28;20111;-85
2022/01/03 02:05:18;;;;;;;16.40;9.35;;;;;;;;;;5036194;28;20041;-85
2022/01/03 02:07:45;;;;;;;20.60;10.00;;;;;;;;;;5036549;28;20076;-84
2022/01/03 02:10:13;;;;;;;16.35;8.15;;;;;;;;;;5018508;28;20029;-84
2022/01/03 02:12:42;;;;;;;15.68;7.20;;;;;;;;;;5036149;28;20474;-85
2022/01/03 02:15:11;;;;;;;15.25;6.72;;;;;;;;;;5018525;28;20384;-85
2022/01/03 02:17:38;;;;;;;23.25;9.75;;;;;;;;;;5018451;28;20379;-85
2022/01/03 02:20:09;;;;;;;28.58;11.55;;;;;;;;;;5018370;28;20435;-84
2022/01/03 02:22:37;;;;;;;22.27;9.35;;;;;;;;;;5018488;28;20033;-85
2022/01/03 02:25:03;;;;;;;18.55;8.25;;;;;;;;;;5018185;28;20400;-85
2022/01/03 02:27:31;;;;;;;20.40;8.88;;;;;;;;;;5018330;28;20033;-85
2022/01/03 02:29:57;;;;;;;21.00;8.38;;;;;;;;;;5018287;28;20100;-85
2022/01/03 02:32:23;;;;;;;20.63;7.20;;;;;;;;;;5017924;28;20049;-85
2022/01/03 02:34:49;;;;;;;15.80;7.60;;;;;;;;;;5017962;28;20515;-85
2022/01/03 02:37:16;;;;;;;12.20;6.40;;;;;;;;;;5036279;28;20033;-85
2022/01/03 02:39:42;;;;;;;20.77;8.25;;;;;;;;;;5035845;28;20040;-84
2022/01/03 02:42:08;;;;;;;21.15;10.77;;;;;;;;;;5035839;28;20037;-85
2022/01/03 02:44:35;;;;;;;24.63;10.65;;;;;;;;;;5017774;28;20025;-85
2022/01/03 02:47:01;;;;;;;19.52;8.15;;;;;;;;;;5017866;28;20037;-85
2022/01/03 02:49:28;;;;;;;18.08;6.95;;;;;;;;;;5017866;28;20043;-85
2022/01/03 02:51:54;;;;;;;16.05;7.47;;;;;;;;;;5018171;28;20026;-85
2022/01/03 02:54:20;;;;;;;20.13;6.97;;;;;;;;;;5017644;28;20498;-85
2022/01/03 02:56:46;;;;;;;11.60;5.03;;;;;;;;;;5017653;28;20084;-84
2022/01/03 02:59:13;;;;;;;14.50;6.60;;;;;;;;;;5017538;28;20045;-84
2022/01/03 03:01:43;;;;;;;13.35;6.15;;;;;;;;;;5035138;28;20429;-84
2022/01/03 03:04:10;;;;;;;19.35;7.65;;;;;;;;;;5035360;28;20029;-85
2022/01/03 03:06:36;;;;;;;21.52;7.75;;;;;;;;;;5017397;28;20068;-85
2022/01/03 03:09:05;;;;;;;18.02;7.70;;;;;;;;;;5017282;28;20040;-84
2022/01/03 03:11:35;;;;;;;16.02;7.00;;;;;;;;;;5035112;28;20021;-84
2022/01/03 03:14:02;;;;;;;20.08;8.35;;;;;;;;;;5035071;28;20033;-84
2022/01/03 03:16:28;;;;;;;19.45;7.95;;;;;;;;;;5034933;28;20041;-84
2022/01/03 03:18:54;;;;;;;26.45;8.82;;;;;;;;;;5017548;28;20029;-83
2022/01/03 03:21:21;;;;;;;23.08;8.68;;;;;;;;;;5017160;28;20447;-84
2022/01/03 03:23:47;;;;;;;21.45;8.23;;;;;;;;;;5017168;28;20380;-84
2022/01/03 03:26:14;;;;;;;26.23;9.55;;;;;;;;;;5017009;28;20034;-84
2022/01/03 03:28:40;;;;;;;19.20;8.40;;;;;;;;;;5017062;28;20030;-84
2022/01/03 03:31:06;;;;;;;22.65;8.55;;;;;;;;;;5016999;28;20072;-84
2022/01/03 03:33:33;;;;;;;21.20;7.25;;;;;;;;;;5016765;28;20045;-84
2022/01/03 03:36:00;;;;;;;16.90;7.18;;;;;;;;;;5034897;28;20044;-84
2022/01/03 03:38:27;;;;;;;19.23;7.38;;;;;;;;;;5034471;28;20092;-84
2022/01/03 03:40:54;;;;;;;15.27;7.10;;;;;;;;;;5016830;28;20441;-84
2022/01/03 03:43:21;;;;;;;16.02;6.47;;;;;;;;;;5016761;28;20038;-84
2022/01/03 03:45:51;;;;;;;18.20;6.35;;;;;;;;;;5016709;28;20045;-84
2022/01/03 03:48:18;;;;;;;14.07;5.35;;;;;;;;;;5016773;28;20030;-85
2022/01/03 03:50:44;;;;;;;15.45;6.22;;;;;;;;;;5016481;28;20468;-84
2022/01/03 03:53:11;;;;;;;18.60;6.68;;;;;;;;;;5016647;28;20096;-84
2022/01/03 03:55:37;;;;;;;20.58;7.30;;;;;;;;;;5016495;28;20040;-84
2022/01/03 03:58:04;;;;;;;17.92;7.40;;;;;;;;;;5016536;28;20038;-85
2022/01/03 04:00:31;;;;;;;17.33;7.30;;;;;;;;;;5016473;28;20034;-84
2022/01/03 04:02:57;;;;;;;17.05;6.70;;;;;;;;;;5016450;28;20435;-84
2022/01/03 04:05:24;;;;;;;16.88;6.97;;;;;;;;;;5016318;28;20041;-85
2022/01/03 04:07:50;;;;;;;16.33;7.10;;;;;;;;;;5016336;28;20484;-84
2022/01/03 04:10:17;;;;;;;17.85;7.93;;;;;;;;;;5016258;28;20055;-84
2022/01/03 04:12:46;;;;;;;18.65;7.30;;;;;;;;;;5034066;28;20033;-84
2022/01/03 04:15:13;;;;;;;19.35;7.38;;;;;;;;;;5015775;28;20040;-84
2022/01/03 04:17:39;;;;;;;17.92;7.82;;;;;;;;;;5016252;28;20060;-84
2022/01/03 04:20:06;;;;;;;25.85;8.20;;;;;;;;;;5016197;28;20036;-84
2022/01/03 04:22:33;;;;;;;16.90;7.32;;;;;;;;;;5033648;28;20026;-85
2022/01/03 04:24:59;;;;;;;18.42;7.25;;;;;;;;;;5016173;28;20399;-84
2022/01/03 04:27:25;;;;;;;18.35;6.97;;;;;;;;;;5016222;28;20034;-85
2022/01/03 04:29:52;;;;;;;15.20;7.03;;;;;;;;;;5016188;28;20039;-85
2022/01/03 04:32:18;;;;;;;14.40;6.70;;;;;;;;;;5016024;28;20080;-86
2022/01/03 04:34:44;;;;;;;18.90;6.63;;;;;;;;;;5033983;28;20041;-86
2022/01/03 04:37:13;;;;;;;20.02;6.88;;;;;;;;;;5016097;28;20057;-85
2022/01/03 04:39:39;;;;;;;15.05;6.78;;;;;;;;;;5016165;28;20040;-86
2022/01/03 04:42:06;;;;;;;17.15;6.75;;;;;;;;;;5016077;28;20454;-85
2022/01/03 04:44:32;;;;;;;17.48;7.85;;;;;;;;;;5033867;28;20026;-86
2022/01/03 04:46:58;;;;;;;24.65;7.00;;;;;;;;;;5033588;28;20041;-86
2022/01/03 04:49:25;;;;;;;15.00;6.97;;;;;;;;;;5016013;28;20037;-85
2022/01/03 04:51:51;;;;;;;16.40;7.43;;;;;;;;;;5016031;28;20036;-86
2022/01/03 04:54:17;;;;;;;15.05;6.82;;;;;;;;;;5033897;28;20030;-86
2022/01/03 04:56:44;;;;;;;14.63;6.18;;;;;;;;;;5033313;28;20357;-85
2022/01/03 04:59:10;;;;;;;14.57;6.80;;;;;;;;;;5016054;28;20041;-86
2022/01/03 05:01:36;;;;;;;12.85;5.88;;;;;;;;;;5015948;28;20033;-85
2022/01/03 05:04:03;;;;;;;13.70;6.88;;;;;;;;;;5016047;28;20030;-86
2022/01/03 05:06:29;;;;;;;12.70;6.07;;;;;;;;;;5015917;28;20449;-86
2022/01/03 05:08:56;;;;;;;15.07;6.78;;;;;;;;;;5033644;28;20492;-86
2022/01/03 05:11:22;;;;;;;16.10;6.22;;;;;;;;;;5015956;28;20038;-86
2022/01/03 05:13:48;;;;;;;17.42;7.43;;;;;;;;;;5015853;28;20029;-87
2022/01/03 05:16:16;;;;;;;13.18;5.68;;;;;;;;;;5033660;28;20095;-86
2022/01/03 05:18:43;;;;;;;12.18;6.13;;;;;;;;;;5015792;28;20029;-86
2022/01/03 05:21:09;;;;;;;15.10;6.18;;;;;;;;;;5015701;28;20034;-86
2022/01/03 05:23:35;;;;;;;10.68;5.72;;;;;;;;;;5015712;28;20503;-86
2022/01/03 05:26:01;;;;;;;13.65;5.30;;;;;;;;;;5015564;28;20052;-86
2022/01/03 05:28:28;;;;;;;9.27;4.80;;;;;;;;;;5036482;28;20052;-86
2022/01/03 05:30:54;;;;;;;11.60;5.07;;;;;;;;;;5019284;28;20045;-86
2022/01/03 05:33:20;;;;;;;9.20;4.32;;;;;;;;;;5019251;28;20067;-86
2022/01/03 05:35:47;;;;;;;8.48;4.30;;;;;;;;;;5037077;28;20104;-86
2022/01/03 05:38:13;;;;;;;9.30;3.92;;;;;;;;;;5019026;28;20498;-86
2022/01/03 05:40:39;;;;;;;10.05;3.85;;;;;;;;;;5019139;28;20083;-86
2022/01/03 05:43:06;;;;;;;10.50;3.85;;;;;;;;;;5037285;28;20045;-86
2022/01/03 05:45:32;;;;;;;12.23;4.65;;;;;;;;;;5019128;28;20041;-86
2022/01/03 05:47:58;;;;;;;9.95;4.38;;;;;;;;;;5019036;28;20034;-86
2022/01/03 05:50:25;;;;;;;12.23;4.38;;;;;;;;;;5018884;28;20380;-86
2022/01/03 05:52:51;;;;;;;11.73;4.72;;;;;;;;;;5019375;28;20041;-86
2022/01/03 05:55:20;;;;;;;8.40;3.45;;;;;;;;;;5019076;28;20056;-87
2022/01/03 05:57:46;;;;;;;8.90;4.55;;;;;;;;;;5018935;28;20030;-86
2022/01/03 06:00:16;;;;;;;11.68;4.65;;;;;;;;;;5018751;28;20091;-85
2022/01/03 06:02:43;;;;;;;11.40;4.80;;;;;;;;;;5018787;28;20069;-87
2022/01/03 06:05:20;;;;;;;11.88;5.07;;;;;;;;;;5037041;28;20082;-86
2022/01/03 06:07:47;;;;;;;8.60;4.40;;;;;;;;;;5036421;28;20490;-86
2022/01/03 06:10:15;;;;;;;14.07;5.10;;;;;;;;;;5018562;28;20035;-86
2022/01/03 06:12:42;;;;;;;9.20;4.45;;;;;;;;;;5018484;28;20037;-86
2022/01/03 06:15:08;;;;;;;12.90;5.95;;;;;;;;;;5018454;28;20499;-86
2022/01/03 06:17:35;;;;;;;11.95;4.88;;;;;;;;;;5018451;28;20040;-86
2022/01/03 06:20:01;;;;;;;11.25;6.00;;;;;;;;;;5018436;28;20034;-86
2022/01/03 06:22:27;;;;;;;16.15;7.82;;;;;;;;;;5018395;28;20026;-86
2022/01/03 06:24:54;;;;;;;18.15;9.10;;;;;;;;;;5018364;28;20056;-86
2022/01/03 06:27:20;;;;;;;37.90;18.77;;;;;;;;;;5018207;28;20069;-86
2022/01/03 06:29:46;;;;;;;60.85;28.70;;;;;;;;;;5018358;28;20040;-86
2022/01/03 06:32:12;;;;;;;72.07;34.38;;;;;;;;;;5018028;28;20076;-86
2022/01/03 06:34:39;;;;;;;70.72;35.25;;;;;;;;;;5018845;28;20045;-86
2022/01/03 06:37:05;;;;;;;78.85;36.05;;;;;;;;;;5018189;28;20037;-86
2022/01/03 06:39:31;;;;;;;65.78;34.85;;;;;;;;;;5017817;28;20033;-86
2022/01/03 06:41:58;;;;;;;71.00;36.30;;;;;;;;;;5018149;28;20124;-86
2022/01/03 06:44:24;;;;;;;68.53;33.88;;;;;;;;;;5018086;28;20365;-86
2022/01/03 06:46:51;;;;;;;69.85;35.22;;;;;;;;;;5017977;28;20044;-87
2022/01/03 06:49:18;;;;;;;67.22;33.75;;;;;;;;;;5035884;28;20113;-86
2022/01/03 06:51:44;;;;;;;63.28;30.70;;;;;;;;;;5018019;28;20084;-87
2022/01/03 06:54:11;;;;;;;74.38;34.17;;;;;;;;;;5017856;28;20112;-86
2022/01/03 06:56:37;;;;;;;72.30;32.53;;;;;;;;;;5017555;28;20095;-87
2022/01/03 06:59:04;;;;;;;67.82;31.25;;;;;;;;;;5017629;28;20075;-87
2022/01/03 07:01:31;;;;;;;60.20;27.05;;;;;;;;;;5017768;28;20030;-86
2022/01/03 07:03:57;;;;;;;59.45;26.77;;;;;;;;;;5017737;28;20034;-86
2022/01/03 07:06:23;;;;;;;50.90;25.13;;;;;;;;;;5017591;28;20045;-86
2022/01/03 07:08:50;;;;;;;64.20;27.10;;;;;;;;;;5017432;28;20373;-86
2022/01/03 07:11:16;;;;;;;50.17;24.50;;;;;;;;;;5017505;28;20045;-86
2022/01/03 07:13:49;;;;;;;56.60;25.00;;;;;;;;;;5017451;28;20030;-86
2022/01/03 07:19:03;;;;;;;48.40;23.30;;;;;;;;;;5035250;28;20396;-86
2022/01/03 07:21:32;;;;;;;48.03;21.80;;;;;;;;;;5017456;28;20365;-86
2022/01/03 07:23:59;;;;;;;51.47;25.10;;;;;;;;;;5010351;28;20041;-86
2022/01/03 07:26:26;;;;;;;62.65;24.80;;;;;;;;;;5017279;28;20041;-87
2022/01/03 07:28:52;;;;;;;49.25;25.42;;;;;;;;;;5017223;28;20041;-86
2022/01/03 07:31:18;;;;;;;47.67;23.00;;;;;;;;;;5017028;28;20037;-86
2022/01/03 07:33:46;;;;;;;56.88;25.75;;;;;;;;;;5016947;28;20059;-86
2022/01/03 07:36:12;;;;;;;53.88;25.63;;;;;;;;;;5017101;28;20111;-86
2022/01/03 07:38:39;;;;;;;53.15;26.27;;;;;;;;;;5017081;28;20036;-86
2022/01/03 07:41:05;;;;;;;62.25;29.95;;;;;;;;;;5016825;28;20120;-86
2022/01/03 07:43:32;;;;;;;71.78;31.63;;;;;;;;;;5017036;28;20030;-87
2022/01/03 07:45:58;;;;;;;67.50;30.63;;;;;;;;;;5016959;28;20048;-86
2022/01/03 07:48:24;;;;;;;83.13;35.70;;;;;;;;;;5016838;28;20104;-86
2022/01/03 07:50:51;;;;;;;84.70;40.22;;;;;;;;;;5015843;28;20538;-86
2022/01/03 07:53:17;;;;;;;83.45;39.28;;;;;;;;;;5016808;28;20037;-86
2022/01/03 07:55:43;;;;;;;68.97;34.13;;;;;;;;;;5016576;28;20488;-86
2022/01/03 07:58:11;;;;;;;57.42;25.30;;;;;;;;;;5016693;28;20069;-86
2022/01/03 08:00:38;;;;;;;32.65;15.43;;;;;;;;;;5016632;28;20037;-86
2022/01/03 08:03:04;;;;;;;18.27;8.40;;;;;;;;;;5016665;28;20546;-86
2022/01/03 08:05:30;;;;;;;21.50;9.05;;;;;;;;;;5016616;28;20037;-86
2022/01/03 08:07:57;;;;;;;21.63;8.93;;;;;;;;;;5016616;28;20057;-86
2022/01/03 08:10:24;;;;;;;21.00;8.35;;;;;;;;;;5034425;28;20029;-86
2022/01/03 08:12:51;;;;;;;13.13;5.97;;;;;;;;;;5016495;28;20064;-85
2022/01/03 08:15:17;;;;;;;13.27;5.25;;;;;;;;;;5016329;28;20064;-87
2022/01/03 08:17:46;;;;;;;15.07;5.68;;;;;;;;;;5033955;28;20032;-87
2022/01/03 08:20:13;;;;;;;19.85;7.38;;;;;;;;;;5034145;28;20025;-86
2022/01/03 08:22:39;;;;;;;16.52;8.20;;;;;;;;;;5016321;28;20036;-85
2022/01/03 08:25:06;;;;;;;17.58;7.93;;;;;;;;;;5016270;28;20033;-86
2022/01/03 08:27:32;;;;;;;19.38;6.57;;;;;;;;;;5034273;28;20036;-86
2022/01/03 08:29:58;;;;;;;17.00;7.15;;;;;;;;;;5016220;28;20064;-86
2022/01/03 08:32:25;;;;;;;20.38;8.85;;;;;;;;;;5015979;28;20071;-86
2022/01/03 08:34:51;;;;;;;19.77;9.85;;;;;;;;;;5016154;28;20033;-85
2022/01/03 08:37:17;;;;;;;16.23;9.45;;;;;;;;;;5015928;28;20492;-85
2022/01/03 08:39:44;;;;;;;25.17;9.65;;;;;;;;;;5016512;28;20124;-86
2022/01/03 08:42:10;;;;;;;19.70;10.15;;;;;;;;;;5033829;28;20087;-85
2022/01/03 08:44:37;;;;;;;25.42;11.27;;;;;;;;;;5015868;28;20034;-86
2022/01/03 08:47:03;;;;;;;33.70;13.25;;;;;;;;;;5015894;28;20040;-86
2022/01/03 08:49:30;;;;;;;29.20;13.48;;;;;;;;;;5016169;28;20083;-86
2022/01/03 08:51:56;;;;;;;31.08;15.45;;;;;;;;;;5015957;28;20060;-86
2022/01/03 08:54:22;;;;;;;30.23;13.93;;;;;;;;;;5015979;28;20443;-85
2022/01/03 08:56:48;;;;;;;26.60;13.88;;;;;;;;;;5016036;28;20029;-85
2022/01/03 08:59:15;;;;;;;33.60;15.43;;;;;;;;;;5015915;28;20472;-85
2022/01/03 09:01:41;;;;;;;36.30;15.50;;;;;;;;;;5017723;28;20037;-85
2022/01/03 09:04:08;;;;;;;36.20;16.33;;;;;;;;;;5019952;28;20033;-85
2022/01/03 09:06:35;;;;;;;38.20;17.95;;;;;;;;;;5019748;28;20128;-85
2022/01/03 09:09:02;;;;;;;29.25;14.40;;;;;;;;;;5037303;28;20026;-85
2022/01/03 09:11:28;;;;;;;35.05;15.93;;;;;;;;;;5019719;28;20380;-86
2022/01/03 09:13:55;;;;;;;36.80;14.77;;;;;;;;;;5019653;28;20029;-86
2022/01/03 09:16:21;;;;;;;34.20;14.07;;;;;;;;;;5019586;28;20033;-86
2022/01/03 09:18:47;;;;;;;24.50;11.68;;;;;;;;;;5019611;28;20048;-85
2022/01/03 09:21:13;;;;;;;24.58;9.73;;;;;;;;;;5019627;28;20087;-85
2022/01/03 09:23:45;;;;;;;23.98;11.20;;;;;;;;;;5019350;28;20037;-85
2022/01/03 09:28:57;;;;;;;23.02;10.95;;;;;;;;;;5037467;28;20041;-85
2022/01/03 09:31:28;;;;;;;20.27;9.35;;;;;;;;;;5019336;28;20029;-85
2022/01/03 09:33:56;;;;;;;27.35;9.45;;;;;;;;;;5019232;28;20104;-86
2022/01/03 09:36:23;;;;;;;23.05;10.45;;;;;;;;;;5037237;28;20084;-86
2022/01/03 09:38:49;;;;;;;25.50;11.07;;;;;;;;;;5019077;28;20400;-86
2022/01/03 09:41:18;;;;;;;30.67;11.65;;;;;;;;;;5019345;28;20026;-86
2022/01/03 09:43:50;;;;;;;32.13;12.32;;;;;;;;;;5019069;28;20068;-86
2022/01/03 09:46:23;;;;;;;29.52;10.85;;;;;;;;;;5036518;28;20050;-86
2022/01/03 09:48:52;;;;;;;29.42;10.38;;;;;;;;;;5019232;28;20030;-86
2022/01/03 09:51:19;;;;;;;22.67;11.13;;;;;;;;;;5036828;28;20030;-85
2022/01/03 09:53:47;;;;;;;29.83;11.70;;;;;;;;;;5036682;28;20034;-85
2022/01/03 09:56:13;;;;;;;43.60;15.10;;;;;;;;;;5018952;28;20116;-85
2022/01/03 09:58:40;;;;;;;37.92;15.18;;;;;;;;;;5036506;28;20190;-84
2022/01/03 10:01:06;;;;;;;36.05;16.45;;;;;;;;;;5018836;28;20033;-86
2022/01/03 10:03:35;;;;;;;42.80;17.63;;;;;;;;;;5018601;28;20472;-85
2022/01/03 10:06:01;;;;;;;43.95;17.23;;;;;;;;;;5018854;28;20061;-86
2022/01/03 10:08:28;;;;;;;42.05;19.08;;;;;;;;;;5036376;28;20029;-85
2022/01/03 10:10:54;;;;;;;54.10;21.52;;;;;;;;;;5019390;28;20025;-85
2022/01/03 10:13:21;;;;;;;52.85;23.77;;;;;;;;;;5035572;28;20034;-86
2022/01/03 10:15:47;;;;;;;72.72;28.80;;;;;;;;;;5036227;28;20033;-85
2022/01/03 10:18:20;;;;;;;67.22;31.15;;;;;;;;;;5018308;28;20498;-86
2022/01/03 10:20:47;;;;;;;71.30;31.80;;;;;;;;;;5018464;28;20037;-85
2022/01/03 10:23:15;;;;;;;84.22;38.70;;;;;;;;;;5018336;28;20112;-85
2022/01/03 10:25:42;;;;;;;83.57;36.85;;;;;;;;;;5036247;28;20030;-86
2022/01/03 10:28:09;;;;;;;68.30;32.75;;;;;;;;;;5018308;28;20037;-86
2022/01/03 10:30:40;;;;;;;68.68;33.97;;;;;;;;;;5018268;28;20036;-85
2022/01/03 10:33:08;;;;;;;82.78;34.40;;;;;;;;;;5035970;28;20042;-86
2022/01/03 10:35:41;;;;;;;77.95;36.50;;;;;;;;;;5018158;28;20427;-86
2022/01/03 10:38:09;;;;;;;83.68;37.60;;;;;;;;;;5017918;28;20550;-85
2022/01/03 10:40:36;;;;;;;79.38;37.22;;;;;;;;;;5018068;28;20034;-85
2022/01/03 10:43:16;;;;;;;84.22;37.25;;;;;;;;;;5018120;28;20064;-85
2022/01/03 10:45:43;;;;;;;72.88;37.15;;;;;;;;;;5017988;28;20038;-85
2022/01/03 10:48:28;;;;;;;75.97;37.75;;;;;;;;;;5017818;28;20033;-85
2022/01/03 10:50:56;;;;;;;86.20;39.08;;;;;;;;;;5017845;28;20037;-85
2022/01/03 10:53:38;;;;;;;84.80;37.70;;;;;;;;;;5017873;28;20120;-86
2022/01/03 10:56:40;;;;;;;84.93;38.58;;;;;;;;;;5018109;28;20091;-85
2022/01/03 10:59:15;;;;;;;83.53;37.92;;;;;;;;;;4939049;29;20100;-86
2022/01/03 11:01:42;;;;;;;79.68;39.83;;;;;;;;;;4999237;28;20040;-85
2022/01/03 11:04:11;;;;;;;88.18;42.30;;;;;;;;;;5035428;28;20449;-85
2022/01/03 11:11:55;;;;;;;97.55;47.53;;;;;;;;;;5035352;28;20535;-86
2022/01/03 11:14:32;;;;;;;94.72;47.60;;;;;;;;;;5029492;28;20553;-85
2022/01/03 11:16:58;;;;;;;106.30;48.20;;;;;;;;;;5017366;28;20066;-86
2022/01/03 11:19:37;;;;;;;98.07;46.47;;;;;;;;;;5017271;28;20034;-85
2022/01/03 11:22:03;;;;;;;105.65;48.25;;;;;;;;;;5034926;28;20141;-85
2022/01/03 11:24:30;;;;;;;99.32;48.13;;;;;;;;;;5016655;28;20571;-85
2022/01/03 11:26:59;;;;;;;103.18;49.83;;;;;;;;;;5016976;28;20551;-85
2022/01/03 11:29:30;;;;;;;106.28;47.53;;;;;;;;;;5017176;28;20029;-85
2022/01/03 11:31:59;;;;;;;98.38;46.55;;;;;;;;;;5017021;28;20374;-85
2022/01/03 11:34:25;;;;;;;108.95;50.40;;;;;;;;;;5017196;28;20061;-85
2022/01/03 11:36:52;;;;;;;92.15;43.45;;;;;;;;;;5034822;28;20029;-86
2022/01/03 11:39:22;;;;;;;98.60;45.13;;;;;;;;;;5034662;28;20084;-85
2022/01/03 11:41:50;;;;;;;98.88;44.40;;;;;;;;;;5016930;28;20078;-85
2022/01/03 11:44:17;;;;;;;94.95;44.88;;;;;;;;;;5016859;28;20125;-85
2022/01/03 11:46:45;;;;;;;89.05;41.10;;;;;;;;;;5034832;28;20088;-85
2022/01/03 11:49:11;;;;;;;90.65;43.60;;;;;;;;;;5016823;28;20025;-86
2022/01/03 11:51:38;;;;;;;94.00;44.30;;;;;;;;;;5016704;28;20029;-85
2022/01/03 11:54:05;;;;;;;90.97;43.10;;;;;;;;;;5034397;28;20101;-85
2022/01/03 11:56:35;;;;;;;91.70;41.30;;;;;;;;;;5016872;28;20049;-86
2022/01/03 12:04:33;;;;;;;82.43;36.38;;;;;;;;;;5034565;28;20076;-85
2022/01/03 12:07:26;;;;;;;86.55;38.88;;;;;;;;;;5016531;28;20445;-86
2022/01/03 12:09:54;;;;;;;83.45;38.95;;;;;;;;;;5031185;28;20037;-85
2022/01/03 12:12:32;;;;;;;84.43;42.15;;;;;;;;;;5016387;28;20040;-86
2022/01/03 12:15:00;;;;;;;94.10;41.38;;;;;;;;;;5016374;28;20380;-86
2022/01/03 12:17:42;;;;;;;79.57;41.17;;;;;;;;;;5016320;28;20128;-85
2022/01/03 12:20:09;;;;;;;105.18;46.30;;;;;;;;;;5016563;28;20116;-85
2022/01/03 12:22:52;;;;;;;98.10;46.40;;;;;;;;;;5016597;28;20167;-85
2022/01/03 12:25:26;;;;;;;106.90;49.15;;;;;;;;;;5034112;28;20033;-86
2022/01/03 12:27:56;;;;;;;113.63;53.58;;;;;;;;;;5016180;28;20476;-85
2022/01/03 12:30:25;;;;;;;115.88;54.10;;;;;;;;;;5016329;28;20029;-85
2022/01/03 12:33:07;;;;;;;122.63;56.72;;;;;;;;;;5015951;28;20049;-85
2022/01/03 12:35:37;;;;;;;107.60;51.22;;;;;;;;;;5015794;28;20488;-85
2022/01/03 12:38:04;;;;;;;121.55;55.53;;;;;;;;;;5016212;28;20083;-86
2022/01/03 12:40:31;;;;;;;115.13;54.83;;;;;;;;;;5033817;28;20040;-86
2022/01/03 12:43:11;;;;;;;115.95;53.03;;;;;;;;;;5015914;28;20523;-85
2022/01/03 12:45:40;;;;;;;125.13;59.05;;;;;;;;;;5016115;28;20127;-85
2022/01/03 12:48:15;;;;;;;128.80;60.92;;;;;;;;;;5016085;28;20037;-85
2022/01/03 12:50:45;;;;;;;118.65;57.72;;;;;;;;;;5015885;28;20095;-85
2022/01/03 12:53:13;;;;;;;126.10;58.88;;;;;;;;;;5015862;28;20574;-85
2022/01/03 12:55:43;;;;;;;126.15;61.70;;;;;;;;;;5015997;28;20030;-86
2022/01/03 12:58:18;;;;;;;132.70;60.65;;;;;;;;;;5016074;28;20033;-85
2022/01/03 13:00:48;;;;;;;136.85;62.00;;;;;;;;;;5015898;28;20120;-86
2022/01/03 13:03:32;;;;;;;156.38;66.18;;;;;;;;;;5015887;28;20034;-86
2022/01/03 13:06:13;;;;;;;147.55;63.65;;;;;;;;;;5016038;28;20183;-85
2022/01/03 13:08:48;;;;;;;149.48;64.18;;;;;;;;;;5015790;28;20057;-85
2022/01/03 13:11:19;;;;;;;168.05;68.22;;;;;;;;;;5015804;28;20476;-85
2022/01/03 13:13:46;;;;;;;170.52;67.80;;;;;;;;;;5015483;28;20549;-85
2022/01/03 13:16:20;;;;;;;157.02;66.05;;;;;;;;;;5015883;28;20038;-85
2022/01/03 13:18:46;;;;;;;163.23;69.72;;;;;;;;;;5033209;28;20060;-85
2022/01/03 13:21:14;;;;;;;171.07;70.55;;;;;;;;;;5015795;28;20029;-85
2022/01/03 13:23:51;;;;;;;148.88;60.25;;;;;;;;;;5015808;28;20033;-85
2022/01/03 13:26:17;;;;;;;126.00;53.38;;;;;;;;;;5015554;28;20038;-85
2022/01/03 13:28:47;;;;;;;117.53;50.30;;;;;;;;;;5015819;28;20036;-85
2022/01/03 13:31:14;;;;;;;113.75;52.20;;;;;;;;;;5015822;28;20043;-86
2022/01/03 13:33:40;;;;;;;113.35;53.28;;;;;;;;;;5015342;28;20054;-85
2022/01/03 13:36:07;;;;;;;114.85;53.30;;;;;;;;;;5015606;28;20035;-85
2022/01/03 13:38:34;;;;;;;124.07;57.05;;;;;;;;;;5015763;28;20383;-85
2022/01/03 13:41:20;;;;;;;133.88;60.40;;;;;;;;;;5015671;28;20060;-85
2022/01/03 13:43:57;;;;;;;128.30;58.47;;;;;;;;;;5015672;28;20096;-85
2022/01/03 13:49:12;;;;;;;112.15;52.10;;;;;;;;;;5036066;28;20041;-85
2022/01/03 13:51:49;;;;;;;116.03;51.20;;;;;;;;;;5036828;28;20065;-86
2022/01/03 13:54:24;;;;;;;109.80;51.22;;;;;;;;;;5036977;28;20034;-86
2022/01/03 13:56:50;;;;;;;108.78;51.13;;;;;;;;;;5018933;28;20539;-85
2022/01/03 13:59:17;;;;;;;104.03;50.47;;;;;;;;;;5036789;28;20021;-86
2022/01/03 14:01:44;;;;;;;106.78;51.53;;;;;;;;;;5036501;28;20033;-86
2022/01/03 14:04:10;;;;;;;97.22;47.15;;;;;;;;;;5002661;28;20042;-86
2022/01/03 14:06:37;;;;;;;97.03;46.78;;;;;;;;;;5018712;28;20080;-85
2022/01/03 14:09:16;;;;;;;92.28;44.28;;;;;;;;;;5018724;28;20033;-85
2022/01/03 14:11:43;;;;;;;97.65;44.63;;;;;;;;;;5018792;28;20040;-85
2022/01/03 14:14:11;;;;;;;87.10;42.00;;;;;;;;;;5018687;28;20030;-86
2022/01/03 14:16:50;;;;;;;87.00;42.00;;;;;;;;;;5018569;28;20150;-85
2022/01/03 14:19:17;;;;;;;85.88;42.55;;;;;;;;;;5018583;28;20381;-85
2022/01/03 14:21:43;;;;;;;94.22;44.33;;;;;;;;;;5018541;28;20064;-85
2022/01/03 14:24:10;;;;;;;84.82;42.58;;;;;;;;;;5018546;28;20076;-85
2022/01/03 14:26:38;;;;;;;88.22;43.00;;;;;;;;;;5018320;28;20488;-85
2022/01/03 14:29:07;;;;;;;90.47;43.45;;;;;;;;;;5018382;28;20037;-85
2022/01/03 14:32:06;;;;;;;91.60;42.47;;;;;;;;;;5018127;28;20045;-85
2022/01/03 14:34:36;;;;;;;86.82;42.58;;;;;;;;;;4976837;28;20065;-85
2022/01/03 14:37:03;;;;;;;89.95;42.33;;;;;;;;;;4998584;28;20034;-85
2022/01/03 14:39:30;;;;;;;85.05;40.63;;;;;;;;;;5016350;28;20042;-85
2022/01/03 14:41:56;;;;;;;84.95;39.72;;;;;;;;;;4999085;28;20104;-86
2022/01/03 14:44:26;;;;;;;83.65;40.60;;;;;;;;;;4998351;28;20523;-86
2022/01/03 14:47:09;;;;;;;83.18;41.58;;;;;;;;;;4998611;28;20129;-85
2022/01/03 14:49:39;;;;;;;83.13;42.13;;;;;;;;;;4998371;28;20030;-86